sensor_id;sensor_type;location;lat;lon;timestamp;P1;durP1;ratioP1;P2;durP2;ratioP2
83807;SDS011;73824;40.292;17.998;2023-12-28T00:00:17;27.27;;;12.48;;
83807;SDS011;73824;40.292;17.998;2023-12-28T00:02:42;29.33;;;12.95;;
83807;SDS011;73824;40.292;17.998;2023-12-28T00:05:08;26.88;;;12.80;;
83807;SDS011;73824;40.292;17.998;2023-12-28T00:07:33;27.55;;;14.05;;
83807;SDS011;73824;40.292;17.998;2023-12-28T00:09:59;30.43;;;15.00;;
83807;SDS011;73824;40.292;17.998;2023-12-28T00:12:24;28.50;;;14.00;;
83807;SDS011;73824;40.292;17.998;2023-12-28T00:14:50;27.63;;;13.00;;
83807;SDS011;73824;40.292;17.998;2023-12-28T00:17:16;26.60;;;12.65;;
83807;SDS011;73824;40.292;17.998;2023-12-28T00:19:41;27.27;;;12.17;;
83807;SDS011;73824;40.292;17.998;2023-12-28T00:22:07;24.17;;;12.10;;
83807;SDS011;73824;40.292;17.998;2023-12-28T00:24:32;26.27;;;12.67;;
83807;SDS011;73824;40.292;17.998;2023-12-28T00:26:58;33.55;;;12.93;;
83807;SDS011;73824;40.292;17.998;2023-12-28T00:29:23;29.52;;;13.10;;
83807;SDS011;73824;40.292;17.998;2023-12-28T00:31:49;25.87;;;12.10;;
83807;SDS011;73824;40.292;17.998;2023-12-28T00:34:14;26.23;;;12.07;;
83807;SDS011;73824;40.292;17.998;2023-12-28T00:36:40;24.92;;;11.25;;
83807;SDS011;73824;40.292;17.998;2023-12-28T00:39:05;23.30;;;10.73;;
83807;SDS011;73824;40.292;17.998;2023-12-28T00:41:31;22.03;;;10.47;;
83807;SDS011;73824;40.292;17.998;2023-12-28T00:43:56;28.93;;;10.67;;
83807;SDS011;73824;40.292;17.998;2023-12-28T00:46:22;23.88;;;10.73;;
83807;SDS011;73824;40.292;17.998;2023-12-28T00:48:47;23.20;;;10.90;;
83807;SDS011;73824;40.292;17.998;2023-12-28T00:51:13;22.60;;;10.30;;
83807;SDS011;73824;40.292;17.998;2023-12-28T00:53:39;19.65;;;9.88;;
83807;SDS011;73824;40.292;17.998;2023-12-28T00:56:04;22.90;;;9.77;;
83807;SDS011;73824;40.292;17.998;2023-12-28T00:58:30;24.30;;;12.82;;
83807;SDS011;73824;40.292;17.998;2023-12-28T01:00:55;26.67;;;12.57;;
83807;SDS011;73824;40.292;17.998;2023-12-28T01:03:21;25.73;;;12.52;;
83807;SDS011;73824;40.292;17.998;2023-12-28T01:05:48;25.55;;;12.25;;
83807;SDS011;73824;40.292;17.998;2023-12-28T01:08:16;27.27;;;12.60;;
83807;SDS011;73824;40.292;17.998;2023-12-28T01:10:42;25.55;;;12.80;;
83807;SDS011;73824;40.292;17.998;2023-12-28T01:13:08;24.13;;;12.25;;
83807;SDS011;73824;40.292;17.998;2023-12-28T01:15:34;27.90;;;13.73;;
83807;SDS011;73824;40.292;17.998;2023-12-28T01:17:59;27.03;;;13.93;;
83807;SDS011;73824;40.292;17.998;2023-12-28T01:20:25;23.13;;;12.73;;
83807;SDS011;73824;40.292;17.998;2023-12-28T01:22:50;27.30;;;13.53;;
83807;SDS011;73824;40.292;17.998;2023-12-28T01:25:16;24.67;;;12.77;;
83807;SDS011;73824;40.292;17.998;2023-12-28T01:27:41;25.38;;;13.88;;
83807;SDS011;73824;40.292;17.998;2023-12-28T01:30:08;25.20;;;13.50;;
83807;SDS011;73824;40.292;17.998;2023-12-28T01:32:34;26.93;;;12.97;;
83807;SDS011;73824;40.292;17.998;2023-12-28T01:34:59;24.47;;;13.80;;
83807;SDS011;73824;40.292;17.998;2023-12-28T01:37:25;25.20;;;12.32;;
83807;SDS011;73824;40.292;17.998;2023-12-28T01:39:51;25.33;;;13.23;;
83807;SDS011;73824;40.292;17.998;2023-12-28T01:42:16;30.80;;;15.13;;
83807;SDS011;73824;40.292;17.998;2023-12-28T01:44:42;30.98;;;15.35;;
83807;SDS011;73824;40.292;17.998;2023-12-28T01:47:07;30.73;;;15.13;;
83807;SDS011;73824;40.292;17.998;2023-12-28T01:49:36;32.15;;;15.02;;
83807;SDS011;73824;40.292;17.998;2023-12-28T01:52:02;31.97;;;15.97;;
83807;SDS011;73824;40.292;17.998;2023-12-28T01:54:28;28.80;;;13.93;;
83807;SDS011;73824;40.292;17.998;2023-12-28T01:56:54;29.20;;;14.40;;
83807;SDS011;73824;40.292;17.998;2023-12-28T01:59:19;28.35;;;14.15;;
83807;SDS011;73824;40.292;17.998;2023-12-28T02:01:55;28.63;;;15.20;;
83807;SDS011;73824;40.292;17.998;2023-12-28T02:04:44;31.38;;;15.93;;
83807;SDS011;73824;40.292;17.998;2023-12-28T02:07:27;34.28;;;15.25;;
83807;SDS011;73824;40.292;17.998;2023-12-28T02:10:12;30.20;;;15.07;;
83807;SDS011;73824;40.292;17.998;2023-12-28T04:54:21;23.00;;;10.90;;
83807;SDS011;73824;40.292;17.998;2023-12-28T04:56:46;21.83;;;10.15;;
83807;SDS011;73824;40.292;17.998;2023-12-28T04:59:12;21.23;;;9.90;;
83807;SDS011;73824;40.292;17.998;2023-12-28T05:01:41;20.10;;;9.75;;
83807;SDS011;73824;40.292;17.998;2023-12-28T05:04:10;20.50;;;10.70;;
83807;SDS011;73824;40.292;17.998;2023-12-28T05:06:36;24.48;;;11.43;;
83807;SDS011;73824;40.292;17.998;2023-12-28T05:09:02;24.38;;;11.25;;
83807;SDS011;73824;40.292;17.998;2023-12-28T05:11:28;24.97;;;13.03;;
83807;SDS011;73824;40.292;17.998;2023-12-28T05:13:54;24.70;;;11.77;;
83807;SDS011;73824;40.292;17.998;2023-12-28T05:16:20;26.53;;;12.60;;
83807;SDS011;73824;40.292;17.998;2023-12-28T05:18:46;24.42;;;11.88;;
83807;SDS011;73824;40.292;17.998;2023-12-28T05:21:12;25.20;;;11.73;;
83807;SDS011;73824;40.292;17.998;2023-12-28T05:23:38;33.35;;;14.50;;
83807;SDS011;73824;40.292;17.998;2023-12-28T05:26:04;31.42;;;13.07;;
83807;SDS011;73824;40.292;17.998;2023-12-28T05:28:29;26.67;;;13.47;;
83807;SDS011;73824;40.292;17.998;2023-12-28T05:30:55;25.60;;;12.82;;
83807;SDS011;73824;40.292;17.998;2023-12-28T05:33:21;25.30;;;11.07;;
83807;SDS011;73824;40.292;17.998;2023-12-28T05:35:47;28.48;;;11.95;;
83807;SDS011;73824;40.292;17.998;2023-12-28T05:38:13;23.13;;;10.95;;
83807;SDS011;73824;40.292;17.998;2023-12-28T05:40:39;23.17;;;9.97;;
83807;SDS011;73824;40.292;17.998;2023-12-28T05:43:04;23.73;;;9.90;;
83807;SDS011;73824;40.292;17.998;2023-12-28T05:45:29;21.90;;;9.97;;
83807;SDS011;73824;40.292;17.998;2023-12-28T05:47:55;21.85;;;10.05;;
83807;SDS011;73824;40.292;17.998;2023-12-28T05:50:20;23.70;;;10.37;;
83807;SDS011;73824;40.292;17.998;2023-12-28T05:52:46;24.37;;;10.73;;
83807;SDS011;73824;40.292;17.998;2023-12-28T05:55:11;21.63;;;10.85;;
83807;SDS011;73824;40.292;17.998;2023-12-28T05:57:37;30.67;;;13.82;;
83807;SDS011;73824;40.292;17.998;2023-12-28T06:00:02;26.17;;;10.70;;
83807;SDS011;73824;40.292;17.998;2023-12-28T06:02:29;25.33;;;11.00;;
83807;SDS011;73824;40.292;17.998;2023-12-28T06:04:55;23.73;;;11.20;;
83807;SDS011;73824;40.292;17.998;2023-12-28T06:07:20;20.27;;;9.67;;
83807;SDS011;73824;40.292;17.998;2023-12-28T06:09:46;22.55;;;10.10;;
83807;SDS011;73824;40.292;17.998;2023-12-28T06:12:11;20.17;;;10.00;;
83807;SDS011;73824;40.292;17.998;2023-12-28T06:14:37;20.90;;;10.15;;
83807;SDS011;73824;40.292;17.998;2023-12-28T06:17:03;21.77;;;9.53;;
83807;SDS011;73824;40.292;17.998;2023-12-28T06:19:28;24.20;;;11.43;;
83807;SDS011;73824;40.292;17.998;2023-12-28T06:21:54;25.48;;;10.32;;
83807;SDS011;73824;40.292;17.998;2023-12-28T06:24:20;26.47;;;10.77;;
83807;SDS011;73824;40.292;17.998;2023-12-28T06:26:45;21.50;;;9.30;;
83807;SDS011;73824;40.292;17.998;2023-12-28T06:29:11;20.83;;;9.43;;
83807;SDS011;73824;40.292;17.998;2023-12-28T06:31:36;16.67;;;8.60;;
83807;SDS011;73824;40.292;17.998;2023-12-28T06:34:02;22.13;;;9.02;;
83807;SDS011;73824;40.292;17.998;2023-12-28T06:36:28;26.40;;;10.10;;
83807;SDS011;73824;40.292;17.998;2023-12-28T06:38:54;19.87;;;8.30;;
83807;SDS011;73824;40.292;17.998;2023-12-28T06:41:20;16.73;;;7.97;;
83807;SDS011;73824;40.292;17.998;2023-12-28T06:43:45;18.88;;;8.50;;
83807;SDS011;73824;40.292;17.998;2023-12-28T06:46:10;20.47;;;7.83;;
83807;SDS011;73824;40.292;17.998;2023-12-28T06:48:36;20.87;;;8.60;;
83807;SDS011;73824;40.292;17.998;2023-12-28T06:51:05;18.85;;;7.90;;
83807;SDS011;73824;40.292;17.998;2023-12-28T06:53:31;16.93;;;7.23;;
83807;SDS011;73824;40.292;17.998;2023-12-28T06:55:56;17.60;;;7.88;;
83807;SDS011;73824;40.292;17.998;2023-12-28T06:58:22;14.87;;;6.37;;
83807;SDS011;73824;40.292;17.998;2023-12-28T07:00:47;15.80;;;7.30;;
83807;SDS011;73824;40.292;17.998;2023-12-28T07:03:12;18.27;;;7.33;;
83807;SDS011;73824;40.292;17.998;2023-12-28T07:05:38;22.35;;;8.57;;
83807;SDS011;73824;40.292;17.998;2023-12-28T07:08:04;18.50;;;7.87;;
83807;SDS011;73824;40.292;17.998;2023-12-28T07:10:29;16.03;;;7.00;;
83807;SDS011;73824;40.292;17.998;2023-12-28T07:12:55;16.10;;;6.78;;
83807;SDS011;73824;40.292;17.998;2023-12-28T07:15:20;15.43;;;6.70;;
83807;SDS011;73824;40.292;17.998;2023-12-28T07:17:46;18.13;;;7.53;;
83807;SDS011;73824;40.292;17.998;2023-12-28T07:20:11;15.63;;;7.13;;
83807;SDS011;73824;40.292;17.998;2023-12-28T07:22:37;14.07;;;5.70;;
83807;SDS011;73824;40.292;17.998;2023-12-28T07:25:06;15.30;;;6.20;;
83807;SDS011;73824;40.292;17.998;2023-12-28T07:27:34;15.88;;;6.35;;
83807;SDS011;73824;40.292;17.998;2023-12-28T07:30:01;13.50;;;6.82;;
83807;SDS011;73824;40.292;17.998;2023-12-28T07:32:28;15.30;;;6.60;;
83807;SDS011;73824;40.292;17.998;2023-12-28T07:34:54;14.57;;;6.30;;
83807;SDS011;73824;40.292;17.998;2023-12-28T07:37:20;15.70;;;6.20;;
83807;SDS011;73824;40.292;17.998;2023-12-28T07:39:46;12.93;;;5.65;;
83807;SDS011;73824;40.292;17.998;2023-12-28T07:42:12;14.63;;;6.90;;
83807;SDS011;73824;40.292;17.998;2023-12-28T07:44:38;14.10;;;7.22;;
83807;SDS011;73824;40.292;17.998;2023-12-28T07:47:03;11.73;;;6.45;;
83807;SDS011;73824;40.292;17.998;2023-12-28T07:49:30;10.00;;;5.53;;
83807;SDS011;73824;40.292;17.998;2023-12-28T07:51:56;13.18;;;6.80;;
83807;SDS011;73824;40.292;17.998;2023-12-28T07:54:21;10.33;;;5.80;;
83807;SDS011;73824;40.292;17.998;2023-12-28T07:56:47;9.57;;;5.70;;
83807;SDS011;73824;40.292;17.998;2023-12-28T07:59:12;10.73;;;5.78;;
83807;SDS011;73824;40.292;17.998;2023-12-28T08:01:38;10.87;;;6.00;;
83807;SDS011;73824;40.292;17.998;2023-12-28T08:04:04;10.67;;;6.00;;
83807;SDS011;73824;40.292;17.998;2023-12-28T08:06:29;10.75;;;6.35;;
83807;SDS011;73824;40.292;17.998;2023-12-28T08:08:59;14.65;;;6.60;;
83807;SDS011;73824;40.292;17.998;2023-12-28T08:11:28;10.70;;;6.25;;
83807;SDS011;73824;40.292;17.998;2023-12-28T08:13:54;11.43;;;7.87;;
83807;SDS011;73824;40.292;17.998;2023-12-28T08:16:19;16.05;;;9.18;;
83807;SDS011;73824;40.292;17.998;2023-12-28T08:18:45;18.23;;;11.30;;
83807;SDS011;73824;40.292;17.998;2023-12-28T08:21:11;17.17;;;9.95;;
83807;SDS011;73824;40.292;17.998;2023-12-28T08:23:36;13.43;;;9.90;;
83807;SDS011;73824;40.292;17.998;2023-12-28T08:26:02;13.93;;;9.57;;
83807;SDS011;73824;40.292;17.998;2023-12-28T08:28:28;14.30;;;9.53;;
83807;SDS011;73824;40.292;17.998;2023-12-28T08:30:53;12.40;;;8.63;;
83807;SDS011;73824;40.292;17.998;2023-12-28T08:33:19;10.87;;;7.97;;
83807;SDS011;73824;40.292;17.998;2023-12-28T08:35:45;14.70;;;11.02;;
83807;SDS011;73824;40.292;17.998;2023-12-28T08:38:10;14.80;;;10.40;;
83807;SDS011;73824;40.292;17.998;2023-12-28T08:40:36;17.60;;;12.93;;
83807;SDS011;73824;40.292;17.998;2023-12-28T08:43:01;14.38;;;10.68;;
83807;SDS011;73824;40.292;17.998;2023-12-28T08:45:27;14.63;;;11.60;;
83807;SDS011;73824;40.292;17.998;2023-12-28T08:47:52;16.83;;;12.50;;
83807;SDS011;73824;40.292;17.998;2023-12-28T08:50:18;16.03;;;12.57;;
83807;SDS011;73824;40.292;17.998;2023-12-28T08:52:43;14.75;;;12.45;;
83807;SDS011;73824;40.292;17.998;2023-12-28T08:55:09;15.83;;;13.47;;
83807;SDS011;73824;40.292;17.998;2023-12-28T08:57:35;18.08;;;12.75;;
83807;SDS011;73824;40.292;17.998;2023-12-28T09:00:00;12.30;;;9.60;;
83807;SDS011;73824;40.292;17.998;2023-12-28T09:02:28;14.75;;;11.20;;
83807;SDS011;73824;40.292;17.998;2023-12-28T09:04:54;14.98;;;11.30;;
83807;SDS011;73824;40.292;17.998;2023-12-28T09:07:19;15.05;;;12.98;;
83807;SDS011;73824;40.292;17.998;2023-12-28T09:09:45;18.33;;;14.87;;
83807;SDS011;73824;40.292;17.998;2023-12-28T09:12:11;16.75;;;14.90;;
83807;SDS011;73824;40.292;17.998;2023-12-28T09:14:37;18.03;;;15.07;;
83807;SDS011;73824;40.292;17.998;2023-12-28T09:17:02;20.17;;;18.08;;
83807;SDS011;73824;40.292;17.998;2023-12-28T09:19:28;17.33;;;15.27;;
83807;SDS011;73824;40.292;17.998;2023-12-28T09:21:54;16.70;;;13.88;;
83807;SDS011;73824;40.292;17.998;2023-12-28T09:24:19;14.50;;;11.30;;
83807;SDS011;73824;40.292;17.998;2023-12-28T09:26:45;14.33;;;10.80;;
83807;SDS011;73824;40.292;17.998;2023-12-28T09:29:10;14.18;;;10.35;;
83807;SDS011;73824;40.292;17.998;2023-12-28T09:31:37;14.23;;;8.80;;
83807;SDS011;73824;40.292;17.998;2023-12-28T09:34:02;12.85;;;8.65;;
83807;SDS011;73824;40.292;17.998;2023-12-28T09:36:29;14.52;;;7.70;;
83807;SDS011;73824;40.292;17.998;2023-12-28T09:38:58;12.03;;;6.80;;
83807;SDS011;73824;40.292;17.998;2023-12-28T09:41:26;12.02;;;7.07;;
83807;SDS011;73824;40.292;17.998;2023-12-28T09:46:36;12.32;;;5.63;;
83807;SDS011;73824;40.292;17.998;2023-12-28T09:49:03;13.02;;;5.63;;
83807;SDS011;73824;40.292;17.998;2023-12-28T09:51:29;13.25;;;5.50;;
83807;SDS011;73824;40.292;17.998;2023-12-28T09:53:55;10.17;;;4.17;;
83807;SDS011;73824;40.292;17.998;2023-12-28T09:56:21;14.18;;;5.07;;
83807;SDS011;73824;40.292;17.998;2023-12-28T09:58:48;14.30;;;5.13;;
83807;SDS011;73824;40.292;17.998;2023-12-28T10:01:15;14.95;;;6.75;;
83807;SDS011;73824;40.292;17.998;2023-12-28T10:03:42;13.88;;;5.13;;
83807;SDS011;73824;40.292;17.998;2023-12-28T10:06:08;13.95;;;4.82;;
83807;SDS011;73824;40.292;17.998;2023-12-28T10:08:34;13.40;;;4.50;;
83807;SDS011;73824;40.292;17.998;2023-12-28T10:11:01;15.00;;;4.78;;
83807;SDS011;73824;40.292;17.998;2023-12-28T10:13:27;11.23;;;3.15;;
83807;SDS011;73824;40.292;17.998;2023-12-28T10:15:56;11.75;;;3.53;;
83807;SDS011;73824;40.292;17.998;2023-12-28T10:18:22;10.07;;;3.45;;
83807;SDS011;73824;40.292;17.998;2023-12-28T10:20:54;9.30;;;3.90;;
83807;SDS011;73824;40.292;17.998;2023-12-28T10:23:19;14.57;;;4.88;;
83807;SDS011;73824;40.292;17.998;2023-12-28T10:25:48;12.35;;;4.20;;
83807;SDS011;73824;40.292;17.998;2023-12-28T10:28:18;10.90;;;4.38;;
83807;SDS011;73824;40.292;17.998;2023-12-28T10:30:45;12.13;;;4.90;;
83807;SDS011;73824;40.292;17.998;2023-12-28T10:33:10;16.90;;;4.43;;
83807;SDS011;73824;40.292;17.998;2023-12-28T10:35:36;11.97;;;3.77;;
83807;SDS011;73824;40.292;17.998;2023-12-28T10:38:01;12.20;;;3.70;;
83807;SDS011;73824;40.292;17.998;2023-12-28T10:40:29;7.75;;;2.90;;
83807;SDS011;73824;40.292;17.998;2023-12-28T10:42:57;12.02;;;4.28;;
83807;SDS011;73824;40.292;17.998;2023-12-28T10:45:28;13.93;;;4.50;;
83807;SDS011;73824;40.292;17.998;2023-12-28T10:50:23;10.20;;;2.80;;
83807;SDS011;73824;40.292;17.998;2023-12-28T10:52:56;9.30;;;3.22;;
83807;SDS011;73824;40.292;17.998;2023-12-28T10:55:32;11.00;;;4.05;;
83807;SDS011;73824;40.292;17.998;2023-12-28T11:00:41;30.08;;;11.73;;
83807;SDS011;73824;40.292;17.998;2023-12-28T11:03:11;15.87;;;5.50;;
83807;SDS011;73824;40.292;17.998;2023-12-28T11:05:43;12.57;;;4.50;;
83807;SDS011;73824;40.292;17.998;2023-12-28T11:08:11;11.40;;;4.10;;
83807;SDS011;73824;40.292;17.998;2023-12-28T11:10:37;8.77;;;2.80;;
83807;SDS011;73824;40.292;17.998;2023-12-28T11:13:03;8.77;;;3.10;;
83807;SDS011;73824;40.292;17.998;2023-12-28T11:15:30;9.47;;;2.90;;
83807;SDS011;73824;40.292;17.998;2023-12-28T11:17:57;10.63;;;3.50;;
83807;SDS011;73824;40.292;17.998;2023-12-28T11:20:22;10.73;;;3.10;;
83807;SDS011;73824;40.292;17.998;2023-12-28T11:22:48;12.10;;;4.22;;
83807;SDS011;73824;40.292;17.998;2023-12-28T11:25:15;11.77;;;4.53;;
83807;SDS011;73824;40.292;17.998;2023-12-28T11:27:43;13.40;;;4.70;;
83807;SDS011;73824;40.292;17.998;2023-12-28T11:30:10;12.40;;;4.55;;
83807;SDS011;73824;40.292;17.998;2023-12-28T11:32:36;10.13;;;4.13;;
83807;SDS011;73824;40.292;17.998;2023-12-28T11:35:02;10.98;;;4.15;;
83807;SDS011;73824;40.292;17.998;2023-12-28T11:37:35;9.13;;;3.50;;
83807;SDS011;73824;40.292;17.998;2023-12-28T11:40:13;8.68;;;3.30;;
83807;SDS011;73824;40.292;17.998;2023-12-28T11:42:51;10.73;;;4.22;;
83807;SDS011;73824;40.292;17.998;2023-12-28T11:45:18;10.93;;;4.20;;
83807;SDS011;73824;40.292;17.998;2023-12-28T11:47:45;13.77;;;6.50;;
83807;SDS011;73824;40.292;17.998;2023-12-28T11:50:11;15.35;;;7.43;;
83807;SDS011;73824;40.292;17.998;2023-12-28T11:52:37;11.02;;;4.25;;
83807;SDS011;73824;40.292;17.998;2023-12-28T11:55:03;11.40;;;3.78;;
83807;SDS011;73824;40.292;17.998;2023-12-28T11:57:29;12.02;;;3.72;;
83807;SDS011;73824;40.292;17.998;2023-12-28T11:59:57;12.18;;;5.43;;
83807;SDS011;73824;40.292;17.998;2023-12-28T12:02:23;11.98;;;5.00;;
83807;SDS011;73824;40.292;17.998;2023-12-28T12:04:49;13.02;;;4.90;;
83807;SDS011;73824;40.292;17.998;2023-12-28T12:07:15;12.17;;;4.80;;
83807;SDS011;73824;40.292;17.998;2023-12-28T12:09:41;14.65;;;7.18;;
83807;SDS011;73824;40.292;17.998;2023-12-28T12:12:08;12.48;;;5.38;;
83807;SDS011;73824;40.292;17.998;2023-12-28T12:14:34;11.97;;;5.30;;
83807;SDS011;73824;40.292;17.998;2023-12-28T12:17:00;14.00;;;6.63;;
83807;SDS011;73824;40.292;17.998;2023-12-28T12:19:26;16.30;;;6.53;;
83807;SDS011;73824;40.292;17.998;2023-12-28T12:21:52;29.13;;;13.93;;
83807;SDS011;73824;40.292;17.998;2023-12-28T12:24:18;17.65;;;7.82;;
83807;SDS011;73824;40.292;17.998;2023-12-28T12:26:47;12.55;;;5.50;;
83807;SDS011;73824;40.292;17.998;2023-12-28T12:29:14;10.20;;;3.95;;
83807;SDS011;73824;40.292;17.998;2023-12-28T12:31:40;10.53;;;3.50;;
83807;SDS011;73824;40.292;17.998;2023-12-28T12:34:08;12.57;;;5.22;;
83807;SDS011;73824;40.292;17.998;2023-12-28T12:36:34;9.10;;;3.78;;
83807;SDS011;73824;40.292;17.998;2023-12-28T12:39:00;8.47;;;3.67;;
83807;SDS011;73824;40.292;17.998;2023-12-28T12:41:26;11.18;;;5.40;;
83807;SDS011;73824;40.292;17.998;2023-12-28T12:43:52;14.30;;;5.63;;
83807;SDS011;73824;40.292;17.998;2023-12-28T12:46:21;12.73;;;4.70;;
83807;SDS011;73824;40.292;17.998;2023-12-28T12:48:57;12.60;;;5.00;;
83807;SDS011;73824;40.292;17.998;2023-12-28T12:51:27;10.20;;;3.88;;
83807;SDS011;73824;40.292;17.998;2023-12-28T12:53:58;9.35;;;4.18;;
83807;SDS011;73824;40.292;17.998;2023-12-28T12:56:25;16.25;;;5.25;;
83807;SDS011;73824;40.292;17.998;2023-12-28T12:58:52;10.93;;;3.60;;
83807;SDS011;73824;40.292;17.998;2023-12-28T13:01:18;11.88;;;3.72;;
83807;SDS011;73824;40.292;17.998;2023-12-28T13:03:45;9.88;;;3.20;;
83807;SDS011;73824;40.292;17.998;2023-12-28T13:06:10;9.93;;;3.10;;
83807;SDS011;73824;40.292;17.998;2023-12-28T13:08:36;10.65;;;3.88;;
83807;SDS011;73824;40.292;17.998;2023-12-28T13:11:02;11.40;;;4.40;;
83807;SDS011;73824;40.292;17.998;2023-12-28T13:13:27;12.30;;;3.60;;
83807;SDS011;73824;40.292;17.998;2023-12-28T13:15:53;9.15;;;3.80;;
83807;SDS011;73824;40.292;17.998;2023-12-28T13:18:18;10.60;;;3.70;;
83807;SDS011;73824;40.292;17.998;2023-12-28T13:20:43;7.57;;;2.97;;
83807;SDS011;73824;40.292;17.998;2023-12-28T13:23:10;11.60;;;4.75;;
83807;SDS011;73824;40.292;17.998;2023-12-28T13:25:36;14.13;;;4.57;;
83807;SDS011;73824;40.292;17.998;2023-12-28T13:28:02;11.17;;;4.20;;
83807;SDS011;73824;40.292;17.998;2023-12-28T13:30:28;13.10;;;4.32;;
83807;SDS011;73824;40.292;17.998;2023-12-28T13:32:54;12.10;;;4.50;;
83807;SDS011;73824;40.292;17.998;2023-12-28T13:35:24;15.45;;;6.70;;
83807;SDS011;73824;40.292;17.998;2023-12-28T13:37:49;24.13;;;10.87;;
83807;SDS011;73824;40.292;17.998;2023-12-28T13:40:15;12.90;;;5.00;;
83807;SDS011;73824;40.292;17.998;2023-12-28T13:42:41;14.33;;;4.27;;
83807;SDS011;73824;40.292;17.998;2023-12-28T13:45:07;11.93;;;4.70;;
83807;SDS011;73824;40.292;17.998;2023-12-28T13:47:33;12.85;;;4.35;;
83807;SDS011;73824;40.292;17.998;2023-12-28T13:49:58;11.60;;;5.37;;
83807;SDS011;73824;40.292;17.998;2023-12-28T13:52:24;14.63;;;6.13;;
83807;SDS011;73824;40.292;17.998;2023-12-28T13:54:49;15.05;;;5.97;;
83807;SDS011;73824;40.292;17.998;2023-12-28T13:57:15;10.83;;;5.00;;
83807;SDS011;73824;40.292;17.998;2023-12-28T13:59:40;13.67;;;4.70;;
83807;SDS011;73824;40.292;17.998;2023-12-28T14:02:06;13.20;;;4.60;;
83807;SDS011;73824;40.292;17.998;2023-12-28T14:04:31;11.15;;;4.28;;
83807;SDS011;73824;40.292;17.998;2023-12-28T14:06:57;12.37;;;5.43;;
83807;SDS011;73824;40.292;17.998;2023-12-28T14:09:22;14.30;;;5.07;;
83807;SDS011;73824;40.292;17.998;2023-12-28T14:11:48;16.00;;;6.00;;
83807;SDS011;73824;40.292;17.998;2023-12-28T14:14:14;10.73;;;4.73;;
83807;SDS011;73824;40.292;17.998;2023-12-28T14:16:40;19.92;;;8.27;;
83807;SDS011;73824;40.292;17.998;2023-12-28T14:19:05;13.17;;;6.23;;
83807;SDS011;73824;40.292;17.998;2023-12-28T14:21:37;17.88;;;7.75;;
83807;SDS011;73824;40.292;17.998;2023-12-28T14:24:04;17.95;;;7.75;;
83807;SDS011;73824;40.292;17.998;2023-12-28T14:26:34;22.10;;;9.65;;
83807;SDS011;73824;40.292;17.998;2023-12-28T14:29:05;18.35;;;8.13;;
83807;SDS011;73824;40.292;17.998;2023-12-28T14:31:32;15.65;;;6.03;;
83807;SDS011;73824;40.292;17.998;2023-12-28T14:33:57;11.18;;;4.10;;
83807;SDS011;73824;40.292;17.998;2023-12-28T14:36:27;13.73;;;5.17;;
83807;SDS011;73824;40.292;17.998;2023-12-28T14:38:59;11.73;;;4.22;;
83807;SDS011;73824;40.292;17.998;2023-12-28T14:41:25;13.00;;;5.43;;
83807;SDS011;73824;40.292;17.998;2023-12-28T14:43:50;17.40;;;5.40;;
83807;SDS011;73824;40.292;17.998;2023-12-28T14:46:16;12.10;;;5.47;;
83807;SDS011;73824;40.292;17.998;2023-12-28T14:48:41;16.35;;;7.10;;
83807;SDS011;73824;40.292;17.998;2023-12-28T14:51:07;14.67;;;5.80;;
83807;SDS011;73824;40.292;17.998;2023-12-28T14:53:33;14.05;;;6.07;;
83807;SDS011;73824;40.292;17.998;2023-12-28T14:55:58;16.33;;;7.40;;
83807;SDS011;73824;40.292;17.998;2023-12-28T14:58:25;12.38;;;6.00;;
83807;SDS011;73824;40.292;17.998;2023-12-28T15:00:51;15.68;;;6.47;;
83807;SDS011;73824;40.292;17.998;2023-12-28T15:03:19;11.95;;;5.43;;
83807;SDS011;73824;40.292;17.998;2023-12-28T15:05:45;14.47;;;6.53;;
83807;SDS011;73824;40.292;17.998;2023-12-28T15:08:10;15.63;;;6.63;;
83807;SDS011;73824;40.292;17.998;2023-12-28T15:10:36;18.27;;;7.20;;
83807;SDS011;73824;40.292;17.998;2023-12-28T15:13:02;33.88;;;15.52;;
83807;SDS011;73824;40.292;17.998;2023-12-28T15:15:27;28.17;;;13.15;;
83807;SDS011;73824;40.292;17.998;2023-12-28T15:17:54;27.87;;;12.27;;
83807;SDS011;73824;40.292;17.998;2023-12-28T15:20:19;18.13;;;10.00;;
83807;SDS011;73824;40.292;17.998;2023-12-28T15:22:45;14.10;;;7.20;;
83807;SDS011;73824;40.292;17.998;2023-12-28T15:25:11;15.15;;;7.32;;
83807;SDS011;73824;40.292;17.998;2023-12-28T15:27:37;16.27;;;7.80;;
83807;SDS011;73824;40.292;17.998;2023-12-28T15:30:03;24.98;;;15.73;;
83807;SDS011;73824;40.292;17.998;2023-12-28T15:32:30;20.15;;;10.68;;
83807;SDS011;73824;40.292;17.998;2023-12-28T15:34:56;22.20;;;11.03;;
83807;SDS011;73824;40.292;17.998;2023-12-28T15:37:22;31.75;;;15.82;;
83807;SDS011;73824;40.292;17.998;2023-12-28T15:39:47;24.93;;;12.20;;
83807;SDS011;73824;40.292;17.998;2023-12-28T15:42:13;41.00;;;23.98;;
83807;SDS011;73824;40.292;17.998;2023-12-28T15:44:39;36.57;;;20.47;;
83807;SDS011;73824;40.292;17.998;2023-12-28T15:47:04;29.83;;;17.50;;
83807;SDS011;73824;40.292;17.998;2023-12-28T15:49:33;37.28;;;22.00;;
83807;SDS011;73824;40.292;17.998;2023-12-28T15:51:58;60.45;;;36.45;;
83807;SDS011;73824;40.292;17.998;2023-12-28T15:54:24;64.57;;;38.13;;
83807;SDS011;73824;40.292;17.998;2023-12-28T15:56:49;34.70;;;21.60;;
83807;SDS011;73824;40.292;17.998;2023-12-28T15:59:15;24.95;;;15.48;;
83807;SDS011;73824;40.292;17.998;2023-12-28T16:01:40;23.53;;;14.23;;
83807;SDS011;73824;40.292;17.998;2023-12-28T16:04:06;32.27;;;18.33;;
83807;SDS011;73824;40.292;17.998;2023-12-28T16:06:32;37.75;;;20.30;;
83807;SDS011;73824;40.292;17.998;2023-12-28T16:08:57;35.83;;;22.17;;
83807;SDS011;73824;40.292;17.998;2023-12-28T16:11:23;42.10;;;26.83;;
83807;SDS011;73824;40.292;17.998;2023-12-28T16:13:48;38.17;;;22.70;;
83807;SDS011;73824;40.292;17.998;2023-12-28T16:16:14;36.17;;;22.83;;
83807;SDS011;73824;40.292;17.998;2023-12-28T16:18:40;40.78;;;24.58;;
83807;SDS011;73824;40.292;17.998;2023-12-28T16:21:06;38.92;;;23.55;;
83807;SDS011;73824;40.292;17.998;2023-12-28T16:23:35;42.10;;;25.98;;
83807;SDS011;73824;40.292;17.998;2023-12-28T16:26:01;51.05;;;32.28;;
83807;SDS011;73824;40.292;17.998;2023-12-28T16:28:27;53.17;;;32.08;;
83807;SDS011;73824;40.292;17.998;2023-12-28T16:30:56;47.05;;;29.80;;
83807;SDS011;73824;40.292;17.998;2023-12-28T16:33:22;40.65;;;25.80;;
83807;SDS011;73824;40.292;17.998;2023-12-28T16:35:47;52.77;;;32.03;;
83807;SDS011;73824;40.292;17.998;2023-12-28T16:38:13;54.13;;;32.47;;
83807;SDS011;73824;40.292;17.998;2023-12-28T16:40:38;46.20;;;28.20;;
83807;SDS011;73824;40.292;17.998;2023-12-28T16:43:04;40.47;;;24.27;;
83807;SDS011;73824;40.292;17.998;2023-12-28T16:45:29;33.10;;;20.67;;
83807;SDS011;73824;40.292;17.998;2023-12-28T16:47:55;44.93;;;27.13;;
83807;SDS011;73824;40.292;17.998;2023-12-28T16:50:20;63.58;;;39.45;;
83807;SDS011;73824;40.292;17.998;2023-12-28T16:52:49;66.45;;;40.10;;
83807;SDS011;73824;40.292;17.998;2023-12-28T16:55:14;68.95;;;43.03;;
83807;SDS011;73824;40.292;17.998;2023-12-28T16:57:40;70.07;;;43.67;;
83807;SDS011;73824;40.292;17.998;2023-12-28T17:00:05;69.60;;;43.00;;